createdAt,value
2023-06-11T00:00:26.514Z,599.00
2023-06-11T00:01:26.569Z,598.00
2023-06-11T00:02:26.734Z,600.00
2023-06-11T00:03:26.820Z,602.00
2023-06-11T00:04:27.037Z,599.00
2023-06-11T00:05:26.706Z,598.00
2023-06-11T00:06:26.786Z,600.00
2023-06-11T00:07:26.769Z,601.00
2023-06-11T00:08:26.834Z,603.00
2023-06-11T00:09:26.896Z,603.00
2023-06-11T00:10:26.891Z,605.00
2023-06-11T00:11:26.903Z,605.00
2023-06-11T00:12:26.955Z,605.00
2023-06-11T00:13:27.020Z,602.00
2023-06-11T00:14:27.042Z,599.00
2023-06-11T00:15:27.102Z,599.00
2023-06-11T00:16:27.144Z,599.00
2023-06-11T00:17:27.196Z,598.00
2023-06-11T00:18:27.154Z,598.00
2023-06-11T00:19:27.200Z,601.00
2023-06-11T00:20:27.278Z,604.00
2023-06-11T00:21:27.287Z,605.00
2023-06-11T00:22:27.302Z,606.00
2023-06-11T00:23:27.301Z,610.00
2023-06-11T00:24:27.344Z,610.00
2023-06-11T00:25:27.376Z,611.00
2023-06-11T00:26:27.451Z,614.00
2023-06-11T00:27:27.426Z,616.00
2023-06-11T00:28:27.468Z,618.00
2023-06-11T00:29:27.465Z,621.00
2023-06-11T00:30:27.548Z,620.00
2023-06-11T00:31:27.573Z,620.00
2023-06-11T00:32:27.637Z,620.00
2023-06-11T00:33:27.636Z,618.00
2023-06-11T00:34:28.443Z,618.00
2023-06-11T00:35:27.677Z,619.00
2023-06-11T00:36:27.692Z,622.00
2023-06-11T00:37:27.737Z,618.00
2023-06-11T00:38:27.777Z,615.00
2023-06-11T00:39:27.814Z,613.00
2023-06-11T00:40:27.815Z,613.00
2023-06-11T00:41:27.976Z,614.00
2023-06-11T00:42:27.865Z,614.00
2023-06-11T00:43:27.909Z,614.00
2023-06-11T00:44:27.950Z,613.00
2023-06-11T00:45:27.999Z,615.00
2023-06-11T00:46:28.216Z,619.00
2023-06-11T00:47:28.146Z,621.00
2023-06-11T00:48:28.034Z,620.00
2023-06-11T00:49:28.144Z,618.00
2023-06-11T00:50:28.129Z,617.00
2023-06-11T00:51:28.164Z,616.00
2023-06-11T00:52:28.174Z,615.00
2023-06-11T00:53:28.210Z,616.00
2023-06-11T00:54:28.249Z,615.00
2023-06-11T00:55:28.273Z,617.00
2023-06-11T00:56:28.393Z,618.00
2023-06-11T00:57:28.354Z,620.00
2023-06-11T00:58:28.539Z,622.00
2023-06-11T00:59:28.391Z,619.00
2023-06-11T01:00:28.476Z,620.00
2023-06-11T01:01:28.627Z,620.00
2023-06-11T01:02:28.580Z,621.00
2023-06-11T01:03:28.980Z,622.00
2023-06-11T01:04:28.683Z,622.00
2023-06-11T01:05:28.762Z,621.00
2023-06-11T01:06:28.647Z,623.00
2023-06-11T01:07:28.667Z,622.00
2023-06-11T01:08:28.729Z,623.00
2023-06-11T01:09:28.741Z,624.00
2023-06-11T01:10:28.778Z,625.00
2023-06-11T01:11:28.772Z,625.00
2023-06-11T01:12:28.861Z,624.00
2023-06-11T01:13:28.866Z,621.00
2023-06-11T01:14:28.911Z,620.00
2023-06-11T01:15:28.925Z,616.00
2023-06-11T01:16:28.991Z,618.00
2023-06-11T01:17:28.997Z,617.00
2023-06-11T01:18:29.036Z,617.00
2023-06-11T01:19:29.147Z,617.00
2023-06-11T01:20:29.112Z,618.00
2023-06-11T01:21:29.155Z,617.00
2023-06-11T01:22:29.151Z,616.00
2023-06-11T01:23:29.251Z,618.00
2023-06-11T01:24:29.246Z,619.00
2023-06-11T01:25:29.337Z,620.00
2023-06-11T01:26:29.289Z,621.00
2023-06-11T01:27:29.365Z,622.00
2023-06-11T01:28:29.388Z,621.00
2023-06-11T01:29:29.388Z,622.00
2023-06-11T01:30:29.443Z,625.00
2023-06-11T01:31:29.542Z,627.00
2023-06-11T01:32:29.588Z,627.00
2023-06-11T01:33:29.565Z,625.00
2023-06-11T01:34:29.587Z,623.00
2023-06-11T01:35:29.648Z,623.00
2023-06-11T01:36:29.661Z,623.00
2023-06-11T01:37:29.696Z,624.00
2023-06-11T01:38:29.803Z,623.00
2023-06-11T01:39:29.796Z,620.00
2023-06-11T01:40:29.901Z,618.00
2023-06-11T01:41:29.881Z,618.00
2023-06-11T01:42:29.905Z,619.00
2023-06-11T01:43:29.926Z,618.00
2023-06-11T01:44:30.001Z,618.00
2023-06-11T01:45:30.051Z,622.00
2023-06-11T01:46:30.100Z,622.00
2023-06-11T01:47:30.110Z,622.00
2023-06-11T01:48:30.130Z,620.00
2023-06-11T01:49:30.171Z,620.00
2023-06-11T01:50:30.208Z,622.00
2023-06-11T01:51:30.249Z,623.00
2023-06-11T01:52:30.338Z,622.00
2023-06-11T01:53:30.306Z,622.00
2023-06-11T01:54:30.375Z,621.00
2023-06-11T01:55:30.415Z,621.00
2023-06-11T01:56:30.438Z,621.00
2023-06-11T01:57:30.510Z,624.00
2023-06-11T01:58:30.542Z,624.00
2023-06-11T01:59:30.537Z,625.00
2023-06-11T02:00:30.588Z,625.00
2023-06-11T02:01:30.719Z,625.00
2023-06-11T02:02:30.732Z,624.00
2023-06-11T02:03:30.853Z,624.00
2023-06-11T02:04:30.746Z,626.00
2023-06-11T02:05:30.820Z,627.00
2023-06-11T02:06:30.865Z,628.00
2023-06-11T02:07:30.864Z,624.00
2023-06-11T02:08:30.910Z,624.00
2023-06-11T02:09:30.985Z,622.00
2023-06-11T02:10:31.023Z,623.00
2023-06-11T02:11:31.100Z,621.00
2023-06-11T02:12:31.107Z,619.00
2023-06-11T02:13:31.164Z,619.00
2023-06-11T02:14:31.189Z,617.00
2023-06-11T02:15:31.230Z,619.00
2023-06-11T02:16:31.366Z,616.00
2023-06-11T02:17:31.355Z,616.00
2023-06-11T02:18:31.360Z,619.00
2023-06-11T02:19:31.401Z,617.00
2023-06-11T02:20:31.464Z,615.00
2023-06-11T02:21:31.500Z,615.00
2023-06-11T02:22:31.517Z,614.00
2023-06-11T02:23:31.596Z,616.00
2023-06-11T02:24:31.596Z,617.00
2023-06-11T02:25:31.645Z,616.00
2023-06-11T02:26:31.676Z,619.00
2023-06-11T02:27:31.751Z,618.00
2023-06-11T02:28:31.763Z,618.00
2023-06-11T02:29:31.825Z,617.00
2023-06-11T02:30:32.004Z,620.00
2023-06-11T02:31:31.957Z,620.00
2023-06-11T02:32:32.036Z,617.00
2023-06-11T02:33:31.968Z,621.00
2023-06-11T02:34:32.027Z,620.00
2023-06-11T02:35:32.078Z,617.00
2023-06-11T02:36:32.103Z,617.00
2023-06-11T02:37:32.141Z,615.00
2023-06-11T02:38:32.217Z,614.00
2023-06-11T02:39:32.259Z,614.00
2023-06-11T02:40:32.272Z,615.00
2023-06-11T02:41:32.328Z,616.00
2023-06-11T02:42:32.376Z,617.00
2023-06-11T02:43:32.413Z,620.00
2023-06-11T02:44:32.459Z,621.00
2023-06-11T02:45:32.496Z,621.00
2023-06-11T02:46:32.617Z,622.00
2023-06-11T02:47:32.625Z,622.00
2023-06-11T02:48:32.635Z,620.00
2023-06-11T02:49:32.683Z,619.00
2023-06-11T02:50:32.704Z,619.00
2023-06-11T02:51:32.749Z,617.00
2023-06-11T02:52:32.781Z,617.00
2023-06-11T02:53:32.844Z,619.00
2023-06-11T02:54:32.884Z,620.00
2023-06-11T02:55:32.912Z,621.00
2023-06-11T02:56:32.954Z,623.00
2023-06-11T02:57:32.975Z,621.00
2023-06-11T02:58:33.064Z,623.00
2023-06-11T02:59:33.089Z,622.00
2023-06-11T03:00:33.121Z,621.00
2023-06-11T03:01:33.206Z,621.00
2023-06-11T03:02:33.215Z,624.00
2023-06-11T03:03:33.296Z,624.00
2023-06-11T03:04:33.286Z,624.00
2023-06-11T03:05:33.324Z,623.00
2023-06-11T03:06:33.377Z,621.00
2023-06-11T03:07:33.403Z,618.00
2023-06-11T03:08:33.466Z,619.00
2023-06-11T03:09:33.554Z,619.00
2023-06-11T03:10:33.561Z,622.00
2023-06-11T03:11:33.571Z,625.00
2023-06-11T03:12:33.609Z,625.00
2023-06-11T03:13:33.756Z,625.00
2023-06-11T03:14:33.702Z,624.00
2023-06-11T03:15:33.804Z,623.00
2023-06-11T03:16:33.927Z,623.00
2023-06-11T03:17:33.875Z,621.00
2023-06-11T03:18:33.916Z,621.00
2023-06-11T03:19:33.938Z,618.00
2023-06-11T03:20:33.989Z,617.00
2023-06-11T03:21:33.992Z,614.00
2023-06-11T03:22:34.101Z,614.00
2023-06-11T03:23:34.111Z,615.00
2023-06-11T03:24:34.167Z,617.00
2023-06-11T03:25:34.178Z,616.00
2023-06-11T03:26:34.219Z,619.00
2023-06-11T03:27:34.299Z,619.00
2023-06-11T03:28:34.330Z,620.00
2023-06-11T03:29:34.420Z,618.00
2023-06-11T03:30:34.414Z,619.00
2023-06-11T03:31:34.501Z,616.00
2023-06-11T03:32:34.581Z,618.00
2023-06-11T03:33:34.494Z,618.00
2023-06-11T03:34:34.568Z,619.00
2023-06-11T03:35:34.602Z,621.00
2023-06-11T03:36:34.644Z,621.00
2023-06-11T03:37:34.707Z,617.00
2023-06-11T03:38:34.782Z,615.00
2023-06-11T03:39:34.807Z,614.00
2023-06-11T03:40:34.860Z,614.00
2023-06-11T03:41:34.895Z,612.00
2023-06-11T03:42:34.928Z,610.00
2023-06-11T03:43:35.089Z,611.00
2023-06-11T03:44:35.121Z,611.00
2023-06-11T03:45:35.097Z,610.00
2023-06-11T03:46:35.165Z,611.00
2023-06-11T03:47:35.190Z,611.00
2023-06-11T03:48:35.223Z,612.00
2023-06-11T03:49:35.278Z,613.00
2023-06-11T03:50:35.300Z,612.00
2023-06-11T03:51:35.380Z,615.00
2023-06-11T03:52:35.427Z,613.00
2023-06-11T03:53:35.436Z,614.00
2023-06-11T03:54:35.494Z,612.00
2023-06-11T03:55:35.551Z,611.00
2023-06-11T03:56:35.574Z,610.00
2023-06-11T03:57:35.646Z,608.00
2023-06-11T03:58:35.656Z,608.00
2023-06-11T03:59:35.749Z,608.00
2023-06-11T04:00:35.768Z,608.00
2023-06-11T04:01:35.892Z,608.00
2023-06-11T04:02:35.909Z,609.00
2023-06-11T04:03:35.924Z,612.00
2023-06-11T04:04:35.980Z,612.00
2023-06-11T04:05:35.975Z,613.00
2023-06-11T04:06:36.048Z,613.00
2023-06-11T04:07:37.017Z,610.00
2023-06-11T04:08:36.095Z,609.00
2023-06-11T04:09:36.141Z,611.00
2023-06-11T04:10:36.200Z,612.00
2023-06-11T04:11:36.283Z,614.00
2023-06-11T04:12:36.260Z,612.00
2023-06-11T04:13:36.399Z,612.00
2023-06-11T04:14:36.364Z,611.00
2023-06-11T04:15:36.398Z,611.00
2023-06-11T04:16:36.633Z,612.00
2023-06-11T04:17:36.499Z,614.00
2023-06-11T04:18:36.586Z,615.00
2023-06-11T04:19:36.594Z,615.00
2023-06-11T04:20:36.648Z,614.00
2023-06-11T04:21:36.695Z,615.00
2023-06-11T04:22:36.736Z,616.00
2023-06-11T04:23:36.789Z,615.00
2023-06-11T04:24:36.837Z,614.00
2023-06-11T04:25:36.852Z,614.00
2023-06-11T04:26:36.939Z,615.00
2023-06-11T04:27:36.915Z,616.00
2023-06-11T04:28:36.951Z,616.00
2023-06-11T04:29:37.001Z,617.00
2023-06-11T04:30:37.079Z,615.00
2023-06-11T04:31:37.131Z,613.00
2023-06-11T04:32:37.199Z,611.00
2023-06-11T04:33:37.192Z,609.00
2023-06-11T04:34:37.245Z,607.00
2023-06-11T04:35:37.278Z,606.00
2023-06-11T04:36:37.328Z,606.00
2023-06-11T04:37:37.407Z,607.00
2023-06-11T04:38:37.474Z,609.00
2023-06-11T04:39:37.475Z,611.00
2023-06-11T04:40:37.591Z,613.00
2023-06-11T04:41:37.610Z,614.00
2023-06-11T04:42:37.582Z,614.00
2023-06-11T04:43:37.676Z,612.00
2023-06-11T04:44:38.529Z,612.00
2023-06-11T04:45:37.751Z,611.00
2023-06-11T04:46:37.826Z,612.00
2023-06-11T04:47:37.818Z,612.00
2023-06-11T04:48:37.859Z,612.00
2023-06-11T04:49:37.930Z,613.00
2023-06-11T04:50:37.919Z,612.00
2023-06-11T04:51:37.977Z,609.00
2023-06-11T04:52:38.010Z,609.00
2023-06-11T04:53:38.095Z,607.00
2023-06-11T04:54:38.130Z,607.00
2023-06-11T04:55:38.164Z,607.00
2023-06-11T04:56:38.290Z,605.00
2023-06-11T04:57:38.248Z,605.00
2023-06-11T04:58:38.301Z,606.00
2023-06-11T04:59:38.339Z,607.00
2023-06-11T05:00:38.363Z,607.00
2023-06-11T05:01:38.833Z,607.00
2023-06-11T05:02:38.538Z,609.00
2023-06-11T05:03:38.671Z,611.00
2023-06-11T05:04:38.542Z,610.00
2023-06-11T05:05:38.608Z,607.00
2023-06-11T05:06:38.657Z,606.00
2023-06-11T05:07:38.656Z,604.00
2023-06-11T05:08:38.701Z,603.00
2023-06-11T05:09:38.734Z,603.00
2023-06-11T05:10:38.908Z,606.00
2023-06-11T05:11:38.838Z,607.00
2023-06-11T05:12:38.858Z,608.00
2023-06-11T05:13:38.926Z,606.00
2023-06-11T05:14:38.947Z,606.00
2023-06-11T05:15:39.020Z,606.00
2023-06-11T05:16:39.107Z,604.00
2023-06-11T05:17:39.091Z,604.00
2023-06-11T05:18:39.079Z,604.00
2023-06-11T05:19:39.155Z,606.00
2023-06-11T05:20:39.158Z,609.00
2023-06-11T05:21:39.216Z,611.00
2023-06-11T05:22:39.232Z,611.00
2023-06-11T05:23:39.329Z,610.00
2023-06-11T05:24:39.307Z,609.00
2023-06-11T05:25:39.321Z,606.00
2023-06-11T05:26:39.450Z,608.00
2023-06-11T05:27:39.415Z,608.00
2023-06-11T05:28:39.473Z,609.00
2023-06-11T05:29:39.470Z,608.00
2023-06-11T05:30:39.494Z,608.00
2023-06-11T05:31:39.577Z,610.00
2023-06-11T05:32:39.599Z,613.00
2023-06-11T05:33:39.631Z,612.00
2023-06-11T05:34:39.681Z,613.00
2023-06-11T05:35:39.690Z,611.00
2023-06-11T05:36:39.725Z,608.00
2023-06-11T05:37:39.789Z,610.00
2023-06-11T05:38:39.793Z,611.00
2023-06-11T05:39:39.841Z,613.00
2023-06-11T05:40:39.861Z,613.00
2023-06-11T05:41:39.936Z,613.00
2023-06-11T05:42:39.935Z,613.00
2023-06-11T05:43:40.047Z,615.00
2023-06-11T05:44:39.972Z,613.00
2023-06-11T05:45:39.998Z,612.00
2023-06-11T05:46:40.121Z,609.00
2023-06-11T05:47:40.233Z,608.00
2023-06-11T05:48:40.085Z,609.00
2023-06-11T05:49:40.104Z,609.00
2023-06-11T05:50:40.147Z,607.00
2023-06-11T05:51:40.191Z,607.00
2023-06-11T05:52:40.230Z,604.00
2023-06-11T05:53:40.236Z,604.00
2023-06-11T05:54:40.258Z,606.00
2023-06-11T05:55:40.313Z,605.00
2023-06-11T05:56:40.320Z,605.00
2023-06-11T05:57:40.365Z,606.00
2023-06-11T05:58:40.452Z,606.00
2023-06-11T05:59:40.454Z,608.00
2023-06-11T06:00:40.692Z,605.00
2023-06-11T06:01:40.493Z,605.00
2023-06-11T06:02:40.576Z,607.00
2023-06-11T06:03:40.973Z,609.00
2023-06-11T06:04:40.668Z,610.00
2023-06-11T06:05:40.606Z,609.00
2023-06-11T06:06:40.678Z,606.00
2023-06-11T06:07:40.640Z,605.00
2023-06-11T06:08:43.843Z,603.00
2023-06-11T06:09:40.672Z,603.00
2023-06-11T06:10:40.664Z,606.00
2023-06-11T06:11:40.689Z,607.00
2023-06-11T06:12:40.676Z,606.00
2023-06-11T06:13:40.667Z,606.00
2023-06-11T06:14:40.607Z,605.00
2023-06-11T06:15:40.702Z,604.00
2023-06-11T06:16:40.734Z,605.00
2023-06-11T06:17:41.671Z,604.00
2023-06-11T06:18:40.625Z,602.00
2023-06-11T06:19:40.605Z,603.00
2023-06-11T06:20:40.588Z,604.00
2023-06-11T06:21:40.553Z,606.00
2023-06-11T06:22:40.559Z,608.00
2023-06-11T06:23:40.638Z,609.00
2023-06-11T06:24:40.547Z,610.00
2023-06-11T06:25:40.633Z,608.00
2023-06-11T06:26:40.570Z,606.00
2023-06-11T06:27:40.539Z,606.00
2023-06-11T06:28:40.542Z,606.00
2023-06-11T06:29:40.556Z,606.00
2023-06-11T06:30:41.140Z,605.00
2023-06-11T06:31:40.645Z,606.00
2023-06-11T06:32:40.603Z,607.00
2023-06-11T06:33:40.530Z,607.00
2023-06-11T06:34:40.479Z,608.00
2023-06-11T06:35:40.508Z,606.00
2023-06-11T06:36:40.494Z,604.00
2023-06-11T06:37:40.472Z,604.00
2023-06-11T06:38:40.452Z,604.00
2023-06-11T06:39:40.539Z,606.00
2023-06-11T06:40:40.569Z,608.00
2023-06-11T06:41:40.586Z,609.00
2023-06-11T06:42:40.586Z,608.00
2023-06-11T06:43:40.593Z,608.00
2023-06-11T06:44:40.663Z,608.00
2023-06-11T06:45:40.618Z,609.00
2023-06-11T06:46:40.603Z,606.00
2023-06-11T06:47:40.723Z,607.00
2023-06-11T06:48:40.726Z,606.00
2023-06-11T06:49:40.641Z,604.00
2023-06-11T06:50:40.647Z,602.00
2023-06-11T06:51:40.651Z,600.00
2023-06-11T06:52:40.638Z,600.00
2023-06-11T06:53:40.677Z,600.00
2023-06-11T06:54:40.688Z,602.00
2023-06-11T06:55:40.654Z,602.00
2023-06-11T06:56:40.676Z,600.00
2023-06-11T06:57:40.666Z,598.00
2023-06-11T06:58:40.709Z,599.00
2023-06-11T06:59:40.696Z,601.00
2023-06-11T07:00:40.714Z,600.00
2023-06-11T07:01:40.815Z,600.00
2023-06-11T07:02:40.789Z,601.00
2023-06-11T07:03:40.729Z,600.00
2023-06-11T07:04:40.765Z,597.00
2023-06-11T07:05:40.769Z,596.00
2023-06-11T07:06:40.751Z,597.00
2023-06-11T07:07:43.376Z,596.00
2023-06-11T07:08:40.746Z,597.00
2023-06-11T07:09:40.730Z,597.00
2023-06-11T07:10:40.782Z,595.00
2023-06-11T07:11:40.687Z,594.00
2023-06-11T07:12:40.755Z,593.00
2023-06-11T07:13:40.752Z,592.00
2023-06-11T07:14:40.701Z,592.00
2023-06-11T07:15:40.796Z,592.00
2023-06-11T07:16:40.753Z,592.00
2023-06-11T07:17:40.751Z,591.00
2023-06-11T07:18:40.721Z,594.00
2023-06-11T07:19:40.652Z,595.00
2023-06-11T07:20:40.730Z,596.00
2023-06-11T07:21:40.638Z,596.00
2023-06-11T07:22:40.663Z,598.00
2023-06-11T07:23:40.652Z,599.00
2023-06-11T07:24:40.624Z,598.00
2023-06-11T07:25:40.626Z,597.00
2023-06-11T07:26:40.626Z,598.00
2023-06-11T07:27:40.571Z,598.00
2023-06-11T07:28:40.613Z,599.00
2023-06-11T07:29:40.615Z,601.00
2023-06-11T07:30:40.583Z,600.00
2023-06-11T07:31:40.595Z,600.00
2023-06-11T07:32:40.621Z,599.00
2023-06-11T07:33:40.558Z,600.00
2023-06-11T07:34:40.595Z,601.00
2023-06-11T07:35:40.578Z,600.00
2023-06-11T07:36:40.559Z,598.00
2023-06-11T07:37:40.528Z,598.00
2023-06-11T07:38:40.522Z,599.00
2023-06-11T07:39:40.546Z,599.00
2023-06-11T07:40:40.533Z,598.00
2023-06-11T07:41:40.545Z,597.00
2023-06-11T07:42:40.518Z,597.00
2023-06-11T07:43:40.485Z,593.00
2023-06-11T07:44:40.506Z,593.00
2023-06-11T07:45:40.478Z,591.00
2023-06-11T07:46:40.510Z,592.00
2023-06-11T07:47:40.635Z,594.00
2023-06-11T07:48:40.499Z,595.00
2023-06-11T07:49:40.504Z,597.00
2023-06-11T07:50:40.432Z,598.00
2023-06-11T07:51:40.451Z,598.00
2023-06-11T07:52:40.459Z,597.00
2023-06-11T07:53:40.459Z,596.00
2023-06-11T07:54:40.436Z,597.00
2023-06-11T07:55:40.434Z,597.00
2023-06-11T07:56:40.433Z,600.00
2023-06-11T07:57:40.444Z,599.00
2023-06-11T07:58:40.382Z,598.00
2023-06-11T07:59:40.388Z,599.00
2023-06-11T08:00:40.406Z,598.00
2023-06-11T08:01:40.401Z,597.00
2023-06-11T08:02:40.551Z,597.00
2023-06-11T08:03:40.387Z,597.00
2023-06-11T08:04:40.347Z,597.00
2023-06-11T08:05:40.495Z,597.00
2023-06-11T08:06:40.338Z,598.00
2023-06-11T08:07:40.355Z,596.00
2023-06-11T08:08:40.315Z,593.00
2023-06-11T08:09:40.318Z,592.00
2023-06-11T08:10:40.325Z,591.00
2023-06-11T08:11:40.334Z,589.00
2023-06-11T08:12:40.391Z,588.00
2023-06-11T08:13:40.308Z,585.00
2023-06-11T08:14:40.289Z,585.00
2023-06-11T08:15:40.302Z,585.00
2023-06-11T08:16:40.346Z,584.00
2023-06-11T08:17:40.291Z,588.00
2023-06-11T08:18:40.275Z,588.00
2023-06-11T08:19:40.323Z,588.00
2023-06-11T08:20:40.252Z,588.00
2023-06-11T08:21:40.239Z,590.00
2023-06-11T08:22:40.259Z,589.00
2023-06-11T08:23:40.371Z,590.00
2023-06-11T08:24:40.226Z,589.00
2023-06-11T08:25:40.210Z,589.00
2023-06-11T08:26:40.217Z,588.00
2023-06-11T08:27:40.269Z,591.00
2023-06-11T08:28:40.198Z,591.00
2023-06-11T08:29:40.195Z,593.00
2023-06-11T08:30:40.176Z,594.00
2023-06-11T08:31:40.230Z,594.00
2023-06-11T08:32:40.224Z,591.00
2023-06-11T08:33:40.143Z,592.00
2023-06-11T08:34:40.191Z,590.00
2023-06-11T08:35:40.138Z,588.00
2023-06-11T08:36:40.158Z,587.00
2023-06-11T08:37:40.131Z,585.00
2023-06-11T08:38:40.117Z,587.00
2023-06-11T08:39:40.128Z,588.00
2023-06-11T08:40:40.111Z,587.00
2023-06-11T08:41:40.097Z,585.00
2023-06-11T08:42:40.082Z,585.00
2023-06-11T08:43:40.100Z,582.00
2023-06-11T08:44:40.056Z,584.00
2023-06-11T08:45:40.040Z,583.00
2023-06-11T08:46:40.183Z,579.00
2023-06-11T08:47:40.106Z,581.00
2023-06-11T08:48:40.006Z,580.00
2023-06-11T08:49:40.032Z,581.00
2023-06-11T08:50:40.041Z,583.00
2023-06-11T08:51:39.989Z,584.00
2023-06-11T08:52:40.037Z,583.00
2023-06-11T08:53:40.168Z,584.00
2023-06-11T08:54:40.220Z,586.00
2023-06-11T08:55:40.234Z,583.00
2023-06-11T08:56:40.343Z,583.00
2023-06-11T08:57:40.349Z,583.00
2023-06-11T08:58:40.447Z,583.00
2023-06-11T08:59:40.491Z,579.00
2023-06-11T09:00:40.531Z,579.00
2023-06-11T09:01:40.614Z,579.00
2023-06-11T09:02:40.679Z,582.00
2023-06-11T09:03:40.808Z,583.00
2023-06-11T09:04:40.751Z,583.00
2023-06-11T09:05:40.827Z,580.00
2023-06-11T09:06:40.934Z,582.00
2023-06-11T09:07:40.929Z,582.00
2023-06-11T09:08:40.976Z,582.00
2023-06-11T09:09:41.047Z,583.00
2023-06-11T09:10:41.092Z,585.00
2023-06-11T09:11:41.175Z,587.00
2023-06-11T09:12:41.259Z,588.00
2023-06-11T09:13:41.396Z,585.00
2023-06-11T09:14:41.325Z,583.00
2023-06-11T09:15:41.408Z,582.00
2023-06-11T09:16:41.729Z,582.00
2023-06-11T09:17:41.570Z,584.00
2023-06-11T09:18:41.605Z,585.00
2023-06-11T09:19:41.637Z,584.00
2023-06-11T09:20:41.699Z,583.00
2023-06-11T09:21:41.794Z,584.00
2023-06-11T09:22:41.864Z,582.00
2023-06-11T09:23:41.960Z,582.00
2023-06-11T09:24:41.961Z,584.00
2023-06-11T09:25:42.063Z,586.00
2023-06-11T09:26:42.078Z,587.00
2023-06-11T09:27:42.102Z,586.00
2023-06-11T09:28:42.184Z,584.00
2023-06-11T09:29:42.199Z,581.00
2023-06-11T09:30:42.320Z,580.00
2023-06-11T09:31:42.353Z,580.00
2023-06-11T09:32:42.565Z,579.00
2023-06-11T09:33:42.462Z,581.00
2023-06-11T09:34:42.540Z,582.00
2023-06-11T09:35:42.592Z,582.00
2023-06-11T09:36:42.658Z,580.00
2023-06-11T09:37:42.682Z,578.00
2023-06-11T09:38:42.772Z,577.00
2023-06-11T09:39:42.810Z,576.00
2023-06-11T09:40:42.837Z,576.00
2023-06-11T09:41:42.940Z,575.00
2023-06-11T09:42:43.060Z,576.00
2023-06-11T09:43:43.025Z,578.00
2023-06-11T09:44:43.096Z,579.00
2023-06-11T09:45:43.214Z,578.00
2023-06-11T09:46:43.217Z,578.00
2023-06-11T09:47:43.339Z,578.00
2023-06-11T09:48:43.318Z,578.00
2023-06-11T09:49:43.383Z,578.00
2023-06-11T09:50:43.462Z,576.00
2023-06-11T09:51:43.509Z,577.00
2023-06-11T09:52:43.593Z,579.00
2023-06-11T09:53:43.650Z,579.00
2023-06-11T09:54:43.700Z,581.00
2023-06-11T09:55:48.515Z,578.00
2023-06-11T09:56:44.721Z,576.00
2023-06-11T09:57:43.727Z,577.00
2023-06-11T09:58:43.703Z,575.00
2023-06-11T09:59:43.715Z,576.00
2023-06-11T10:00:43.725Z,578.00
2023-06-11T10:01:43.829Z,577.00
2023-06-11T10:02:43.843Z,577.00
2023-06-11T10:03:43.857Z,575.00
2023-06-11T10:04:43.714Z,574.00
2023-06-11T10:05:43.770Z,576.00
2023-06-11T10:06:43.833Z,574.00
2023-06-11T10:07:43.881Z,575.00
2023-06-11T10:08:43.929Z,574.00
2023-06-11T10:09:44.045Z,573.00
2023-06-11T10:10:44.040Z,570.00
2023-06-11T10:11:44.095Z,567.00
2023-06-11T10:12:44.161Z,568.00
2023-06-11T10:13:44.208Z,571.00
2023-06-11T10:14:44.225Z,570.00
2023-06-11T10:15:44.377Z,570.00
2023-06-11T10:16:44.378Z,570.00
2023-06-11T10:17:44.446Z,572.00
2023-06-11T10:18:44.541Z,573.00
2023-06-11T10:19:44.525Z,570.00
2023-06-11T10:20:44.557Z,570.00
2023-06-11T10:21:44.666Z,571.00
2023-06-11T10:22:44.672Z,570.00
2023-06-11T10:23:44.760Z,570.00
2023-06-11T10:24:44.756Z,572.00
2023-06-11T10:25:44.797Z,568.00
2023-06-11T10:26:44.899Z,569.00
2023-06-11T10:27:44.902Z,569.00
2023-06-11T10:28:44.982Z,569.00
2023-06-11T10:29:45.000Z,568.00
2023-06-11T10:30:45.072Z,565.00
2023-06-11T10:31:45.097Z,565.00
2023-06-11T10:32:45.168Z,565.00
2023-06-11T10:33:45.238Z,566.00
2023-06-11T10:34:45.350Z,566.00
2023-06-11T10:35:45.266Z,566.00
2023-06-11T10:36:45.337Z,565.00
2023-06-11T10:37:45.388Z,564.00
2023-06-11T10:38:45.418Z,565.00
2023-06-11T10:39:45.454Z,566.00
2023-06-11T10:40:45.517Z,565.00
2023-06-11T10:41:45.568Z,564.00
2023-06-11T10:42:45.620Z,566.00
2023-06-11T10:43:45.666Z,565.00
2023-06-11T10:44:45.674Z,564.00
2023-06-11T10:45:47.808Z,565.00
2023-06-11T10:46:45.733Z,563.00
2023-06-11T10:47:45.761Z,563.00
2023-06-11T10:48:45.703Z,561.00
2023-06-11T10:49:45.677Z,563.00
2023-06-11T10:50:45.683Z,564.00
2023-06-11T10:51:45.684Z,562.00
2023-06-11T10:52:45.668Z,562.00
2023-06-11T10:53:45.658Z,562.00
2023-06-11T10:54:45.630Z,561.00
2023-06-11T10:55:45.675Z,563.00
2023-06-11T10:56:45.677Z,563.00
2023-06-11T10:57:45.672Z,562.00
2023-06-11T10:58:45.623Z,562.00
2023-06-11T10:59:45.686Z,564.00
2023-06-11T11:00:45.623Z,566.00
2023-06-11T11:01:45.693Z,565.00
2023-06-11T11:02:45.696Z,565.00
2023-06-11T11:03:45.719Z,565.00
2023-06-11T11:04:45.571Z,565.00
2023-06-11T11:05:45.556Z,567.00
2023-06-11T11:06:45.581Z,569.00
2023-06-11T11:07:45.633Z,566.00
2023-06-11T11:08:45.569Z,564.00
2023-06-11T11:09:45.578Z,560.00
2023-06-11T11:10:45.567Z,561.00
2023-06-11T11:11:45.569Z,558.00
2023-06-11T11:12:45.529Z,559.00
2023-06-11T11:13:45.536Z,559.00
2023-06-11T11:14:45.498Z,558.00
2023-06-11T11:15:45.494Z,557.00
2023-06-11T11:16:45.528Z,556.00
2023-06-11T11:17:45.570Z,559.00
2023-06-11T11:18:45.598Z,560.00
2023-06-11T11:19:45.600Z,557.00
2023-06-11T11:20:45.629Z,556.00
2023-06-11T11:21:45.690Z,554.00
2023-06-11T11:22:45.730Z,552.00
2023-06-11T11:23:45.883Z,552.00
2023-06-11T11:24:45.757Z,552.00
2023-06-11T11:25:45.821Z,555.00
2023-06-11T11:26:45.872Z,554.00
2023-06-11T11:27:45.878Z,557.00
2023-06-11T11:28:45.905Z,555.00
2023-06-11T11:29:45.934Z,555.00
2023-06-11T11:30:45.936Z,556.00
2023-06-11T11:31:46.052Z,555.00
2023-06-11T11:32:46.165Z,552.00
2023-06-11T11:33:46.044Z,553.00
2023-06-11T11:34:46.044Z,552.00
2023-06-11T11:35:46.074Z,552.00
2023-06-11T11:36:46.130Z,550.00
2023-06-11T11:37:46.177Z,551.00
2023-06-11T11:38:46.186Z,550.00
2023-06-11T11:39:46.201Z,551.00
2023-06-11T11:40:46.316Z,553.00
2023-06-11T11:41:46.298Z,556.00
2023-06-11T11:42:46.309Z,556.00
2023-06-11T11:43:46.337Z,553.00
2023-06-11T11:44:46.373Z,554.00
2023-06-11T11:45:46.417Z,556.00
2023-06-11T11:46:46.479Z,555.00
2023-06-11T11:47:46.521Z,557.00
2023-06-11T11:48:46.481Z,556.00
2023-06-11T11:49:46.548Z,552.00
2023-06-11T11:50:46.569Z,553.00
2023-06-11T11:51:46.708Z,552.00
2023-06-11T11:52:46.594Z,551.00
2023-06-11T11:53:46.670Z,553.00
2023-06-11T11:54:46.656Z,553.00
2023-06-11T11:56:46.697Z,551.00
2023-06-11T11:57:46.662Z,552.00
2023-06-11T11:58:46.629Z,554.00
2023-06-11T11:59:46.638Z,554.00
2023-06-11T12:00:46.640Z,556.00
2023-06-11T12:01:46.668Z,555.00
2023-06-11T12:02:46.692Z,557.00
2023-06-11T12:03:46.811Z,558.00
2023-06-11T12:04:46.608Z,560.00
2023-06-11T12:05:46.689Z,563.00
2023-06-11T12:06:46.608Z,563.00
2023-06-11T12:07:46.666Z,560.00
2023-06-11T12:08:46.591Z,556.00
2023-06-11T12:09:46.621Z,557.00
2023-06-11T12:10:46.652Z,557.00
2023-06-11T12:12:03.719Z,556.00
2023-06-11T12:12:47.573Z,556.00
2023-06-11T12:13:46.541Z,553.00
2023-06-11T12:14:46.548Z,552.00
2023-06-11T12:15:46.532Z,554.00
2023-06-11T12:16:46.570Z,555.00
2023-06-11T12:17:46.561Z,553.00
2023-06-11T12:18:46.521Z,552.00
2023-06-11T12:19:46.546Z,551.00
2023-06-11T12:20:46.556Z,552.00
2023-06-11T12:21:48.950Z,552.00
2023-06-11T12:22:46.507Z,552.00
2023-06-11T12:23:46.565Z,551.00
2023-06-11T12:24:46.538Z,552.00
2023-06-11T12:25:46.465Z,551.00
2023-06-11T12:26:46.469Z,553.00
2023-06-11T12:27:46.620Z,553.00
2023-06-11T12:28:46.500Z,550.00
2023-06-11T12:29:46.429Z,552.00